sensor_id;sensor_type;location;lat;lon;timestamp;P1;durP1;ratioP1;P2;durP2;ratioP2
19002;SDS011;9634;51.040;13.794;2022-12-07T01:20:16;15.63;;;8.47;;
19002;SDS011;9634;51.040;13.794;2022-12-07T01:25:18;17.37;;;8.97;;
19002;SDS011;9634;51.040;13.794;2022-12-07T01:30:21;20.10;;;8.73;;
19002;SDS011;9634;51.040;13.794;2022-12-07T01:35:24;19.80;;;9.60;;
19002;SDS011;9634;51.040;13.794;2022-12-07T03:39:34;14.33;;;8.13;;
19002;SDS011;9634;51.040;13.794;2022-12-07T03:44:40;16.30;;;8.10;;
19002;SDS011;9634;51.040;13.794;2022-12-07T03:49:44;16.70;;;8.43;;
19002;SDS011;9634;51.040;13.794;2022-12-07T03:54:53;16.33;;;8.67;;
19002;SDS011;9634;51.040;13.794;2022-12-07T03:59:58;16.83;;;9.03;;
19002;SDS011;9634;51.040;13.794;2022-12-07T04:05:02;17.73;;;8.47;;
19002;SDS011;9634;51.040;13.794;2022-12-07T04:10:06;17.50;;;8.80;;
19002;SDS011;9634;51.040;13.794;2022-12-07T04:15:09;15.00;;;8.10;;
19002;SDS011;9634;51.040;13.794;2022-12-07T04:20:12;18.10;;;8.80;;
19002;SDS011;9634;51.040;13.794;2022-12-07T04:25:16;16.80;;;8.13;;
19002;SDS011;9634;51.040;13.794;2022-12-07T04:30:18;15.83;;;7.93;;
19002;SDS011;9634;51.040;13.794;2022-12-07T04:35:20;15.50;;;8.17;;
19002;SDS011;9634;51.040;13.794;2022-12-07T04:40:24;14.10;;;7.53;;
19002;SDS011;9634;51.040;13.794;2022-12-07T04:45:26;15.23;;;8.43;;
19002;SDS011;9634;51.040;13.794;2022-12-07T04:50:28;16.77;;;7.93;;
19002;SDS011;9634;51.040;13.794;2022-12-07T04:55:32;14.43;;;7.70;;
19002;SDS011;9634;51.040;13.794;2022-12-07T05:00:34;18.27;;;8.93;;
19002;SDS011;9634;51.040;13.794;2022-12-07T05:05:39;18.23;;;8.37;;
19002;SDS011;9634;51.040;13.794;2022-12-07T05:10:43;15.43;;;7.93;;
19002;SDS011;9634;51.040;13.794;2022-12-07T05:15:46;13.90;;;7.67;;
19002;SDS011;9634;51.040;13.794;2022-12-07T07:20:10;6.47;;;3.50;;
19002;SDS011;9634;51.040;13.794;2022-12-07T07:25:13;6.40;;;3.93;;
19002;SDS011;9634;51.040;13.794;2022-12-07T07:30:16;9.27;;;4.70;;
19002;SDS011;9634;51.040;13.794;2022-12-07T07:35:19;5.13;;;3.60;;
19002;SDS011;9634;51.040;13.794;2022-12-07T07:40:22;7.00;;;4.27;;
19002;SDS011;9634;51.040;13.794;2022-12-07T07:45:25;7.23;;;3.57;;
19002;SDS011;9634;51.040;13.794;2022-12-07T07:50:29;6.57;;;4.00;;
19002;SDS011;9634;51.040;13.794;2022-12-07T07:55:31;5.07;;;3.73;;
19002;SDS011;9634;51.040;13.794;2022-12-07T08:00:33;5.73;;;3.67;;
19002;SDS011;9634;51.040;13.794;2022-12-07T08:05:37;7.87;;;4.17;;
19002;SDS011;9634;51.040;13.794;2022-12-07T08:10:40;8.53;;;4.80;;
19002;SDS011;9634;51.040;13.794;2022-12-07T08:15:43;7.67;;;5.33;;
19002;SDS011;9634;51.040;13.794;2022-12-07T08:20:47;9.97;;;5.40;;
19002;SDS011;9634;51.040;13.794;2022-12-07T08:25:49;8.20;;;5.03;;
19002;SDS011;9634;51.040;13.794;2022-12-07T08:30:52;8.50;;;5.57;;
19002;SDS011;9634;51.040;13.794;2022-12-07T08:36:01;8.23;;;4.90;;
19002;SDS011;9634;51.040;13.794;2022-12-07T08:41:05;11.40;;;5.80;;
19002;SDS011;9634;51.040;13.794;2022-12-07T08:46:09;12.03;;;5.43;;
19002;SDS011;9634;51.040;13.794;2022-12-07T08:51:15;10.83;;;5.27;;
19002;SDS011;9634;51.040;13.794;2022-12-07T08:56:18;10.80;;;5.17;;
19002;SDS011;9634;51.040;13.794;2022-12-07T09:01:21;9.30;;;5.77;;
19002;SDS011;9634;51.040;13.794;2022-12-07T09:06:25;9.83;;;5.63;;
19002;SDS011;9634;51.040;13.794;2022-12-07T09:11:28;9.90;;;5.43;;
19002;SDS011;9634;51.040;13.794;2022-12-07T09:16:34;8.67;;;5.20;;
19002;SDS011;9634;51.040;13.794;2022-12-07T09:21:37;8.60;;;4.83;;
19002;SDS011;9634;51.040;13.794;2022-12-07T09:26:39;9.67;;;4.93;;
19002;SDS011;9634;51.040;13.794;2022-12-07T09:31:42;12.67;;;5.47;;
19002;SDS011;9634;51.040;13.794;2022-12-07T09:36:45;7.50;;;4.27;;
19002;SDS011;9634;51.040;13.794;2022-12-07T09:41:47;7.87;;;4.67;;
19002;SDS011;9634;51.040;13.794;2022-12-07T09:46:50;7.87;;;4.17;;
19002;SDS011;9634;51.040;13.794;2022-12-07T09:52:16;6.00;;;3.60;;
19002;SDS011;9634;51.040;13.794;2022-12-07T09:57:22;7.97;;;4.47;;
19002;SDS011;9634;51.040;13.794;2022-12-07T10:02:34;9.40;;;3.60;;
19002;SDS011;9634;51.040;13.794;2022-12-07T10:07:39;7.00;;;3.43;;
19002;SDS011;9634;51.040;13.794;2022-12-07T10:12:52;9.50;;;3.67;;
19002;SDS011;9634;51.040;13.794;2022-12-07T10:17:56;7.03;;;3.80;;
19002;SDS011;9634;51.040;13.794;2022-12-07T10:23:02;6.00;;;3.47;;
19002;SDS011;9634;51.040;13.794;2022-12-07T10:28:11;6.43;;;3.33;;
19002;SDS011;9634;51.040;13.794;2022-12-07T10:33:22;7.20;;;3.17;;
19002;SDS011;9634;51.040;13.794;2022-12-07T10:38:31;6.73;;;3.10;;
19002;SDS011;9634;51.040;13.794;2022-12-07T10:43:34;6.87;;;3.43;;
19002;SDS011;9634;51.040;13.794;2022-12-07T10:48:37;7.07;;;3.70;;
19002;SDS011;9634;51.040;13.794;2022-12-07T10:53:52;8.00;;;3.73;;
19002;SDS011;9634;51.040;13.794;2022-12-07T10:59:04;9.27;;;4.00;;
19002;SDS011;9634;51.040;13.794;2022-12-07T11:04:29;8.17;;;4.03;;
19002;SDS011;9634;51.040;13.794;2022-12-07T11:09:49;9.00;;;4.10;;
19002;SDS011;9634;51.040;13.794;2022-12-07T11:15:02;11.63;;;4.50;;
19002;SDS011;9634;51.040;13.794;2022-12-07T11:20:14;10.57;;;4.27;;
19002;SDS011;9634;51.040;13.794;2022-12-07T11:25:32;8.50;;;4.30;;
19002;SDS011;9634;51.040;13.794;2022-12-07T11:30:42;9.17;;;3.63;;
19002;SDS011;9634;51.040;13.794;2022-12-07T13:35:28;5.10;;;2.63;;
19002;SDS011;9634;51.040;13.794;2022-12-07T13:40:35;3.67;;;2.57;;
19002;SDS011;9634;51.040;13.794;2022-12-07T13:45:38;5.43;;;3.10;;
19002;SDS011;9634;51.040;13.794;2022-12-07T13:50:54;4.57;;;3.07;;
19002;SDS011;9634;51.040;13.794;2022-12-07T13:55:58;5.37;;;3.23;;
19002;SDS011;9634;51.040;13.794;2022-12-07T14:01:01;7.67;;;4.07;;
19002;SDS011;9634;51.040;13.794;2022-12-07T14:06:16;9.33;;;4.70;;
19002;SDS011;9634;51.040;13.794;2022-12-07T14:11:28;10.40;;;4.50;;
19002;SDS011;9634;51.040;13.794;2022-12-07T14:16:32;8.93;;;4.37;;
19002;SDS011;9634;51.040;13.794;2022-12-07T14:21:37;8.60;;;4.60;;
19002;SDS011;9634;51.040;13.794;2022-12-07T14:26:39;8.40;;;4.63;;
19002;SDS011;9634;51.040;13.794;2022-12-07T14:31:42;7.43;;;4.37;;
19002;SDS011;9634;51.040;13.794;2022-12-07T14:36:45;8.70;;;4.40;;
19002;SDS011;9634;51.040;13.794;2022-12-07T14:41:48;7.43;;;4.10;;
19002;SDS011;9634;51.040;13.794;2022-12-07T14:46:53;8.07;;;4.20;;
19002;SDS011;9634;51.040;13.794;2022-12-07T14:51:57;6.80;;;4.37;;
19002;SDS011;9634;51.040;13.794;2022-12-07T14:57:00;7.63;;;4.70;;
19002;SDS011;9634;51.040;13.794;2022-12-07T15:02:02;10.23;;;4.67;;
19002;SDS011;9634;51.040;13.794;2022-12-07T15:07:09;7.97;;;4.50;;
19002;SDS011;9634;51.040;13.794;2022-12-07T15:12:16;8.63;;;4.33;;
19002;SDS011;9634;51.040;13.794;2022-12-07T15:17:18;8.30;;;3.83;;
19002;SDS011;9634;51.040;13.794;2022-12-07T15:22:22;7.10;;;3.97;;
19002;SDS011;9634;51.040;13.794;2022-12-07T15:27:24;5.90;;;3.33;;
19002;SDS011;9634;51.040;13.794;2022-12-07T15:32:26;6.37;;;2.93;;
19002;SDS011;9634;51.040;13.794;2022-12-07T15:37:30;6.40;;;2.57;;
19002;SDS011;9634;51.040;13.794;2022-12-07T15:42:32;4.43;;;2.10;;
19002;SDS011;9634;51.040;13.794;2022-12-07T15:47:35;4.27;;;1.97;;
19002;SDS011;9634;51.040;13.794;2022-12-07T15:52:39;7.43;;;1.90;;
19002;SDS011;9634;51.040;13.794;2022-12-07T15:57:42;4.33;;;1.93;;
19002;SDS011;9634;51.040;13.794;2022-12-07T16:02:44;6.63;;;3.43;;
19002;SDS011;9634;51.040;13.794;2022-12-07T16:07:47;7.00;;;3.00;;
19002;SDS011;9634;51.040;13.794;2022-12-07T16:12:50;8.23;;;3.57;;
19002;SDS011;9634;51.040;13.794;2022-12-07T16:17:52;6.33;;;2.77;;
19002;SDS011;9634;51.040;13.794;2022-12-07T16:22:57;6.33;;;3.63;;
19002;SDS011;9634;51.040;13.794;2022-12-07T16:27:59;4.80;;;3.00;;
19002;SDS011;9634;51.040;13.794;2022-12-07T16:33:02;5.10;;;2.90;;
19002;SDS011;9634;51.040;13.794;2022-12-07T16:38:05;6.10;;;2.70;;
19002;SDS011;9634;51.040;13.794;2022-12-07T18:42:11;5.50;;;2.40;;
19002;SDS011;9634;51.040;13.794;2022-12-07T18:47:13;6.17;;;2.30;;
19002;SDS011;9634;51.040;13.794;2022-12-07T18:52:16;2.57;;;1.90;;
19002;SDS011;9634;51.040;13.794;2022-12-07T18:57:19;4.40;;;1.83;;
19002;SDS011;9634;51.040;13.794;2022-12-07T19:02:21;4.43;;;2.00;;
19002;SDS011;9634;51.040;13.794;2022-12-07T19:07:24;8.33;;;2.20;;
19002;SDS011;9634;51.040;13.794;2022-12-07T19:12:28;9.50;;;2.30;;
19002;SDS011;9634;51.040;13.794;2022-12-07T19:17:30;3.17;;;1.80;;
19002;SDS011;9634;51.040;13.794;2022-12-07T19:22:32;5.20;;;1.90;;
19002;SDS011;9634;51.040;13.794;2022-12-07T19:27:37;6.23;;;2.60;;
19002;SDS011;9634;51.040;13.794;2022-12-07T19:32:39;4.37;;;2.37;;
19002;SDS011;9634;51.040;13.794;2022-12-07T19:37:41;5.10;;;2.60;;
19002;SDS011;9634;51.040;13.794;2022-12-07T19:42:45;6.03;;;3.07;;
19002;SDS011;9634;51.040;13.794;2022-12-07T19:47:47;5.47;;;3.07;;
19002;SDS011;9634;51.040;13.794;2022-12-07T19:52:49;6.88;;;4.15;;
19002;SDS011;9634;51.040;13.794;2022-12-07T19:57:53;6.70;;;3.70;;
19002;SDS011;9634;51.040;13.794;2022-12-07T20:02:55;8.37;;;3.73;;
19002;SDS011;9634;51.040;13.794;2022-12-07T20:07:57;6.40;;;3.33;;
19002;SDS011;9634;51.040;13.794;2022-12-07T20:13:01;7.00;;;3.50;;
19002;SDS011;9634;51.040;13.794;2022-12-07T20:18:20;4.67;;;2.50;;
19002;SDS011;9634;51.040;13.794;2022-12-07T20:23:22;6.67;;;2.77;;
19002;SDS011;9634;51.040;13.794;2022-12-07T20:28:26;6.83;;;2.83;;
19002;SDS011;9634;51.040;13.794;2022-12-07T20:33:29;9.03;;;3.07;;
19002;SDS011;9634;51.040;13.794;2022-12-07T20:38:31;8.20;;;3.13;;
19002;SDS011;9634;51.040;13.794;2022-12-07T20:43:35;8.00;;;3.30;;
19002;SDS011;9634;51.040;13.794;2022-12-07T20:48:37;4.37;;;2.77;;
19002;SDS011;9634;51.040;13.794;2022-12-07T20:53:39;9.97;;;3.47;;
19002;SDS011;9634;51.040;13.794;2022-12-07T20:58:43;6.40;;;2.77;;
19002;SDS011;9634;51.040;13.794;2022-12-07T21:03:45;8.40;;;3.00;;
19002;SDS011;9634;51.040;13.794;2022-12-07T21:08:48;10.27;;;3.00;;
19002;SDS011;9634;51.040;13.794;2022-12-07T21:13:53;10.77;;;3.17;;
19002;SDS011;9634;51.040;13.794;2022-12-07T21:18:55;6.97;;;3.03;;
19002;SDS011;9634;51.040;13.794;2022-12-07T21:24:00;9.47;;;3.53;;
19002;SDS011;9634;51.040;13.794;2022-12-07T21:29:06;9.50;;;4.07;;
19002;SDS011;9634;51.040;13.794;2022-12-07T21:34:08;12.60;;;3.13;;
19002;SDS011;9634;51.040;13.794;2022-12-07T21:39:11;7.10;;;3.10;;
19002;SDS011;9634;51.040;13.794;2022-12-07T21:44:14;6.77;;;3.20;;
19002;SDS011;9634;51.040;13.794;2022-12-07T21:49:17;12.53;;;3.57;;
19002;SDS011;9634;51.040;13.794;2022-12-07T21:54:19;9.47;;;3.63;;
19002;SDS011;9634;51.040;13.794;2022-12-07T21:59:22;7.57;;;3.57;;
19002;SDS011;9634;51.040;13.794;2022-12-07T22:04:25;8.47;;;3.37;;
19002;SDS011;9634;51.040;13.794;2022-12-07T22:09:28;9.57;;;3.57;;
19002;SDS011;9634;51.040;13.794;2022-12-07T22:14:32;8.87;;;3.50;;
19002;SDS011;9634;51.040;13.794;2022-12-07T22:19:50;6.70;;;3.57;;
19002;SDS011;9634;51.040;13.794;2022-12-07T22:24:53;6.87;;;3.23;;
19002;SDS011;9634;51.040;13.794;2022-12-07T22:29:57;8.90;;;3.23;;
19002;SDS011;9634;51.040;13.794;2022-12-07T22:34:59;10.63;;;3.50;;
19002;SDS011;9634;51.040;13.794;2022-12-07T22:40:02;9.07;;;2.90;;
19002;SDS011;9634;51.040;13.794;2022-12-07T22:45:06;7.23;;;3.10;;
19002;SDS011;9634;51.040;13.794;2022-12-07T22:50:10;7.33;;;2.87;;
19002;SDS011;9634;51.040;13.794;2022-12-07T22:55:12;6.83;;;2.70;;
19002;SDS011;9634;51.040;13.794;2022-12-07T23:00:17;7.73;;;3.20;;
19002;SDS011;9634;51.040;13.794;2022-12-07T23:05:19;7.90;;;2.40;;
19002;SDS011;9634;51.040;13.794;2022-12-07T23:10:22;8.40;;;2.80;;
19002;SDS011;9634;51.040;13.794;2022-12-07T23:15:25;10.47;;;2.90;;
19002;SDS011;9634;51.040;13.794;2022-12-07T23:20:28;9.10;;;3.63;;
19002;SDS011;9634;51.040;13.794;2022-12-07T23:25:31;8.00;;;3.70;;
19002;SDS011;9634;51.040;13.794;2022-12-07T23:30:35;9.53;;;2.70;;
19002;SDS011;9634;51.040;13.794;2022-12-07T23:35:37;8.20;;;2.90;;
19002;SDS011;9634;51.040;13.794;2022-12-07T23:40:39;5.13;;;2.50;;
19002;SDS011;9634;51.040;13.794;2022-12-07T23:45:44;5.07;;;2.63;;
19002;SDS011;9634;51.040;13.794;2022-12-07T23:50:47;6.23;;;2.57;;
19002;SDS011;9634;51.040;13.794;2022-12-07T23:55:49;5.10;;;2.67;;
